sensor_id;sensor_type;location;lat;lon;timestamp;pressure;altitude;pressure_sealevel;temperature;humidity
20930;BME280;21895;47.072;15.132;2024-02-21T00:01:18;97629.00;;;1.76;71.32
20930;BME280;21895;47.072;15.132;2024-02-21T00:03:46;97626.00;;;1.77;70.46
20930;BME280;21895;47.072;15.132;2024-02-21T00:06:12;97626.00;;;1.64;69.74
20930;BME280;21895;47.072;15.132;2024-02-21T00:08:39;97633.00;;;1.42;71.06
20930;BME280;21895;47.072;15.132;2024-02-21T00:11:06;97629.00;;;1.47;70.98
20930;BME280;21895;47.072;15.132;2024-02-21T00:13:33;97630.00;;;1.39;71.88
20930;BME280;21895;47.072;15.132;2024-02-21T00:16:01;97629.00;;;1.53;72.06
20930;BME280;21895;47.072;15.132;2024-02-21T00:18:27;97635.00;;;1.52;71.97
20930;BME280;21895;47.072;15.132;2024-02-21T00:20:56;97625.00;;;1.87;71.86
20930;BME280;21895;47.072;15.132;2024-02-21T00:23:23;97625.00;;;1.91;71.01
20930;BME280;21895;47.072;15.132;2024-02-21T00:25:50;97615.00;;;1.83;70.24
20930;BME280;21895;47.072;15.132;2024-02-21T00:28:17;97617.00;;;1.59;70.17
20930;BME280;21895;47.072;15.132;2024-02-21T00:30:44;97620.00;;;1.59;70.28
20930;BME280;21895;47.072;15.132;2024-02-21T00:33:10;97610.00;;;1.54;70.73
20930;BME280;21895;47.072;15.132;2024-02-21T00:35:37;97618.00;;;1.61;71.25
20930;BME280;21895;47.072;15.132;2024-02-21T00:38:04;97613.00;;;1.73;71.38
20930;BME280;21895;47.072;15.132;2024-02-21T00:40:31;97607.00;;;1.63;71.76
20930;BME280;21895;47.072;15.132;2024-02-21T00:42:58;97617.00;;;1.75;72.21
20930;BME280;21895;47.072;15.132;2024-02-21T00:45:24;97614.00;;;1.93;71.50
20930;BME280;21895;47.072;15.132;2024-02-21T00:47:51;97609.00;;;1.83;71.97
20930;BME280;21895;47.072;15.132;2024-02-21T00:50:18;97611.00;;;1.86;72.02
20930;BME280;21895;47.072;15.132;2024-02-21T00:52:44;97602.00;;;1.87;72.22
20930;BME280;21895;47.072;15.132;2024-02-21T00:55:11;97611.00;;;2.01;72.27
20930;BME280;21895;47.072;15.132;2024-02-21T00:57:38;97600.00;;;2.30;71.22
20930;BME280;21895;47.072;15.132;2024-02-21T01:00:06;97612.00;;;2.17;70.94
20930;BME280;21895;47.072;15.132;2024-02-21T01:02:34;97610.00;;;2.18;70.93
20930;BME280;21895;47.072;15.132;2024-02-21T01:05:03;97607.00;;;2.25;70.81
20930;BME280;21895;47.072;15.132;2024-02-21T01:07:30;97605.00;;;2.31;71.19
20930;BME280;21895;47.072;15.132;2024-02-21T01:09:56;97603.00;;;2.22;71.05
20930;BME280;21895;47.072;15.132;2024-02-21T01:12:23;97604.00;;;2.19;70.68
20930;BME280;21895;47.072;15.132;2024-02-21T01:14:49;97603.00;;;2.21;70.92
20930;BME280;21895;47.072;15.132;2024-02-21T01:17:16;97591.00;;;2.30;70.56
20930;BME280;21895;47.072;15.132;2024-02-21T01:19:43;97600.00;;;2.34;70.90
20930;BME280;21895;47.072;15.132;2024-02-21T01:22:09;97598.00;;;2.45;70.94
20930;BME280;21895;47.072;15.132;2024-02-21T01:24:36;97594.00;;;2.44;71.15
20930;BME280;21895;47.072;15.132;2024-02-21T01:27:03;97601.00;;;2.48;70.79
20930;BME280;21895;47.072;15.132;2024-02-21T01:29:29;97598.00;;;2.58;70.91
20930;BME280;21895;47.072;15.132;2024-02-21T01:31:56;97596.00;;;2.66;70.70
20930;BME280;21895;47.072;15.132;2024-02-21T01:34:23;97593.00;;;2.84;70.21
20930;BME280;21895;47.072;15.132;2024-02-21T01:36:50;97591.00;;;2.81;70.16
20930;BME280;21895;47.072;15.132;2024-02-21T01:39:16;97594.00;;;2.81;70.57
20930;BME280;21895;47.072;15.132;2024-02-21T01:41:43;97589.00;;;2.80;70.71
20930;BME280;21895;47.072;15.132;2024-02-21T01:44:10;97590.00;;;2.72;71.07
20930;BME280;21895;47.072;15.132;2024-02-21T01:46:37;97577.00;;;2.81;70.76
20930;BME280;21895;47.072;15.132;2024-02-21T01:49:04;97571.00;;;2.83;70.67
20930;BME280;21895;47.072;15.132;2024-02-21T01:51:31;97571.00;;;2.80;71.21
20930;BME280;21895;47.072;15.132;2024-02-21T01:53:59;97574.00;;;2.93;70.99
20930;BME280;21895;47.072;15.132;2024-02-21T01:56:26;97572.00;;;2.90;71.24
20930;BME280;21895;47.072;15.132;2024-02-21T01:58:55;97569.00;;;3.04;70.85
20930;BME280;21895;47.072;15.132;2024-02-21T02:01:22;97573.00;;;2.94;70.95
20930;BME280;21895;47.072;15.132;2024-02-21T02:03:49;97571.00;;;2.96;71.05
20930;BME280;21895;47.072;15.132;2024-02-21T02:06:16;97565.00;;;2.84;71.27
20930;BME280;21895;47.072;15.132;2024-02-21T02:08:43;97565.00;;;3.15;70.02
20930;BME280;21895;47.072;15.132;2024-02-21T02:11:10;97568.00;;;3.11;70.80
20930;BME280;21895;47.072;15.132;2024-02-21T02:13:39;97563.00;;;3.27;70.46
20930;BME280;21895;47.072;15.132;2024-02-21T02:16:06;97567.00;;;3.36;70.47
20930;BME280;21895;47.072;15.132;2024-02-21T02:18:33;97571.00;;;3.47;70.48
20930;BME280;21895;47.072;15.132;2024-02-21T02:20:59;97563.00;;;3.48;70.00
20930;BME280;21895;47.072;15.132;2024-02-21T02:23:33;97552.00;;;3.25;70.12
20930;BME280;21895;47.072;15.132;2024-02-21T02:26:00;97562.00;;;3.10;70.39
20930;BME280;21895;47.072;15.132;2024-02-21T02:28:27;97554.00;;;3.05;70.27
20930;BME280;21895;47.072;15.132;2024-02-21T02:30:54;97561.00;;;3.01;70.54
20930;BME280;21895;47.072;15.132;2024-02-21T02:33:20;97556.00;;;2.90;71.21
20930;BME280;21895;47.072;15.132;2024-02-21T02:35:47;97553.00;;;2.98;71.54
20930;BME280;21895;47.072;15.132;2024-02-21T02:38:14;97560.00;;;3.02;72.31
20930;BME280;21895;47.072;15.132;2024-02-21T02:40:41;97557.00;;;3.02;72.07
20930;BME280;21895;47.072;15.132;2024-02-21T02:43:09;97560.00;;;3.15;71.69
20930;BME280;21895;47.072;15.132;2024-02-21T02:45:36;97553.00;;;3.24;72.09
20930;BME280;21895;47.072;15.132;2024-02-21T02:48:04;97543.00;;;3.25;71.81
20930;BME280;21895;47.072;15.132;2024-02-21T02:50:30;97546.00;;;3.18;72.50
20930;BME280;21895;47.072;15.132;2024-02-21T02:52:58;97538.00;;;3.25;72.05
20930;BME280;21895;47.072;15.132;2024-02-21T02:55:25;97531.00;;;3.28;71.58
20930;BME280;21895;47.072;15.132;2024-02-21T02:57:52;97526.00;;;3.34;71.17
20930;BME280;21895;47.072;15.132;2024-02-21T03:00:19;97532.00;;;3.26;71.24
20930;BME280;21895;47.072;15.132;2024-02-21T03:02:49;97521.00;;;3.27;71.60
20930;BME280;21895;47.072;15.132;2024-02-21T03:05:20;97526.00;;;3.24;71.74
20930;BME280;21895;47.072;15.132;2024-02-21T03:07:48;97524.00;;;3.13;72.22
20930;BME280;21895;47.072;15.132;2024-02-21T03:10:18;97521.00;;;3.11;72.11
20930;BME280;21895;47.072;15.132;2024-02-21T03:12:45;97515.00;;;2.91;72.89
20930;BME280;21895;47.072;15.132;2024-02-21T03:15:13;97524.00;;;3.00;72.99
20930;BME280;21895;47.072;15.132;2024-02-21T03:17:41;97519.00;;;3.01;72.91
20930;BME280;21895;47.072;15.132;2024-02-21T03:20:09;97519.00;;;3.03;72.81
20930;BME280;21895;47.072;15.132;2024-02-21T03:22:37;97521.00;;;3.13;72.35
20930;BME280;21895;47.072;15.132;2024-02-21T03:25:05;97516.00;;;3.03;72.96
20930;BME280;21895;47.072;15.132;2024-02-21T03:27:32;97516.00;;;3.10;73.20
20930;BME280;21895;47.072;15.132;2024-02-21T03:29:58;97525.00;;;3.20;72.91
20930;BME280;21895;47.072;15.132;2024-02-21T03:32:25;97521.00;;;3.29;72.53
20930;BME280;21895;47.072;15.132;2024-02-21T03:34:51;97515.00;;;3.32;72.47
20930;BME280;21895;47.072;15.132;2024-02-21T03:37:18;97521.00;;;3.30;72.90
20930;BME280;21895;47.072;15.132;2024-02-21T03:39:45;97515.00;;;3.44;73.06
20930;BME280;21895;47.072;15.132;2024-02-21T03:42:12;97514.00;;;3.49;72.20
20930;BME280;21895;47.072;15.132;2024-02-21T03:44:38;97512.00;;;3.51;71.68
20930;BME280;21895;47.072;15.132;2024-02-21T03:47:05;97509.00;;;3.35;71.42
20930;BME280;21895;47.072;15.132;2024-02-21T03:49:32;97507.00;;;3.56;70.91
20930;BME280;21895;47.072;15.132;2024-02-21T03:51:58;97514.00;;;3.52;71.22
20930;BME280;21895;47.072;15.132;2024-02-21T03:54:25;97499.00;;;3.37;71.85
20930;BME280;21895;47.072;15.132;2024-02-21T03:56:51;97499.00;;;3.28;71.75
20930;BME280;21895;47.072;15.132;2024-02-21T03:59:19;97509.00;;;3.18;72.09
20930;BME280;21895;47.072;15.132;2024-02-21T04:01:45;97507.00;;;2.99;73.22
20930;BME280;21895;47.072;15.132;2024-02-21T04:04:12;97501.00;;;3.05;72.83
20930;BME280;21895;47.072;15.132;2024-02-21T04:06:50;97502.00;;;3.06;72.84
20930;BME280;21895;47.072;15.132;2024-02-21T04:09:17;97504.00;;;3.07;73.07
20930;BME280;21895;47.072;15.132;2024-02-21T04:11:43;97505.00;;;3.14;73.34
20930;BME280;21895;47.072;15.132;2024-02-21T04:14:10;97496.00;;;3.16;73.20
20930;BME280;21895;47.072;15.132;2024-02-21T04:16:37;97498.00;;;3.21;73.20
20930;BME280;21895;47.072;15.132;2024-02-21T04:19:05;97504.00;;;3.36;72.69
20930;BME280;21895;47.072;15.132;2024-02-21T04:21:31;97500.00;;;3.36;72.11
20930;BME280;21895;47.072;15.132;2024-02-21T04:23:58;97499.00;;;3.35;71.71
20930;BME280;21895;47.072;15.132;2024-02-21T04:26:25;97497.00;;;3.19;72.55
20930;BME280;21895;47.072;15.132;2024-02-21T04:28:51;97495.00;;;3.29;72.48
20930;BME280;21895;47.072;15.132;2024-02-21T04:31:18;97497.00;;;3.22;72.79
20930;BME280;21895;47.072;15.132;2024-02-21T04:33:44;97496.00;;;3.18;72.37
20930;BME280;21895;47.072;15.132;2024-02-21T04:36:11;97494.00;;;3.27;72.12
20930;BME280;21895;47.072;15.132;2024-02-21T04:38:38;97502.00;;;3.06;72.90
20930;BME280;21895;47.072;15.132;2024-02-21T04:41:05;97500.00;;;3.09;72.78
20930;BME280;21895;47.072;15.132;2024-02-21T04:43:32;97495.00;;;2.98;73.03
20930;BME280;21895;47.072;15.132;2024-02-21T04:45:59;97485.00;;;2.85;73.23
20930;BME280;21895;47.072;15.132;2024-02-21T04:48:26;97480.00;;;3.12;72.92
20930;BME280;21895;47.072;15.132;2024-02-21T04:50:53;97478.00;;;3.12;72.88
20930;BME280;21895;47.072;15.132;2024-02-21T04:53:19;97474.00;;;3.13;72.77
20930;BME280;21895;47.072;15.132;2024-02-21T04:55:47;97481.00;;;3.02;73.13
20930;BME280;21895;47.072;15.132;2024-02-21T04:58:14;97475.00;;;3.06;72.86
20930;BME280;21895;47.072;15.132;2024-02-21T05:00:40;97480.00;;;3.07;72.50
20930;BME280;21895;47.072;15.132;2024-02-21T05:03:10;97486.00;;;3.09;72.23
20930;BME280;21895;47.072;15.132;2024-02-21T05:05:37;97479.00;;;2.97;72.65
20930;BME280;21895;47.072;15.132;2024-02-21T05:08:04;97489.00;;;3.01;72.58
20930;BME280;21895;47.072;15.132;2024-02-21T05:10:31;97489.00;;;3.04;72.68
20930;BME280;21895;47.072;15.132;2024-02-21T05:12:58;97479.00;;;2.87;73.12
20930;BME280;21895;47.072;15.132;2024-02-21T05:15:25;97490.00;;;2.87;73.50
20930;BME280;21895;47.072;15.132;2024-02-21T05:17:51;97487.00;;;2.90;73.06
20930;BME280;21895;47.072;15.132;2024-02-21T05:20:18;97487.00;;;3.03;72.64
20930;BME280;21895;47.072;15.132;2024-02-21T05:22:45;97489.00;;;2.86;72.22
20930;BME280;21895;47.072;15.132;2024-02-21T05:25:11;97480.00;;;2.69;72.95
20930;BME280;21895;47.072;15.132;2024-02-21T05:27:38;97485.00;;;2.56;73.24
20930;BME280;21895;47.072;15.132;2024-02-21T05:30:06;97476.00;;;2.49;73.28
20930;BME280;21895;47.072;15.132;2024-02-21T05:32:33;97479.00;;;2.59;73.27
20930;BME280;21895;47.072;15.132;2024-02-21T05:34:59;97475.00;;;2.60;73.52
20930;BME280;21895;47.072;15.132;2024-02-21T05:37:26;97474.00;;;2.56;73.40
20930;BME280;21895;47.072;15.132;2024-02-21T05:39:53;97473.00;;;2.57;73.01
20930;BME280;21895;47.072;15.132;2024-02-21T05:42:19;97481.00;;;2.49;72.77
20930;BME280;21895;47.072;15.132;2024-02-21T05:44:46;97473.00;;;2.34;72.64
20930;BME280;21895;47.072;15.132;2024-02-21T05:47:13;97476.00;;;2.18;72.88
20930;BME280;21895;47.072;15.132;2024-02-21T05:49:41;97474.00;;;2.23;73.22
20930;BME280;21895;47.072;15.132;2024-02-21T05:52:08;97469.00;;;2.35;73.64
20930;BME280;21895;47.072;15.132;2024-02-21T05:54:38;97472.00;;;2.29;73.67
20930;BME280;21895;47.072;15.132;2024-02-21T05:57:07;97467.00;;;2.25;73.21
20930;BME280;21895;47.072;15.132;2024-02-21T05:59:34;97472.00;;;2.22;73.47
20930;BME280;21895;47.072;15.132;2024-02-21T06:02:02;97474.00;;;2.27;73.46
20930;BME280;21895;47.072;15.132;2024-02-21T06:04:30;97466.00;;;2.21;73.19
20930;BME280;21895;47.072;15.132;2024-02-21T06:06:57;97469.00;;;2.15;73.03
20930;BME280;21895;47.072;15.132;2024-02-21T06:09:23;97469.00;;;2.17;72.94
20930;BME280;21895;47.072;15.132;2024-02-21T06:11:50;97467.00;;;2.09;72.39
20930;BME280;21895;47.072;15.132;2024-02-21T06:14:17;97466.00;;;1.89;73.57
20930;BME280;21895;47.072;15.132;2024-02-21T06:16:44;97461.00;;;1.83;74.50
20930;BME280;21895;47.072;15.132;2024-02-21T06:19:11;97468.00;;;2.10;74.26
20930;BME280;21895;47.072;15.132;2024-02-21T06:21:38;97462.00;;;2.29;74.47
20930;BME280;21895;47.072;15.132;2024-02-21T06:24:05;97470.00;;;2.41;73.86
20930;BME280;21895;47.072;15.132;2024-02-21T06:26:32;97468.00;;;2.50;73.32
20930;BME280;21895;47.072;15.132;2024-02-21T06:29:00;97469.00;;;2.38;73.50
20930;BME280;21895;47.072;15.132;2024-02-21T06:31:29;97468.00;;;2.44;74.02
20930;BME280;21895;47.072;15.132;2024-02-21T06:33:55;97454.00;;;2.83;73.14
20930;BME280;21895;47.072;15.132;2024-02-21T06:36:22;97467.00;;;3.03;72.79
20930;BME280;21895;47.072;15.132;2024-02-21T06:38:49;97465.00;;;3.25;72.16
20930;BME280;21895;47.072;15.132;2024-02-21T06:41:17;97467.00;;;3.20;72.07
20930;BME280;21895;47.072;15.132;2024-02-21T06:43:46;97471.00;;;3.34;72.10
20930;BME280;21895;47.072;15.132;2024-02-21T06:46:28;97474.00;;;3.60;71.47
20930;BME280;21895;47.072;15.132;2024-02-21T06:48:55;97480.00;;;3.57;71.59
20930;BME280;21895;47.072;15.132;2024-02-21T06:51:27;97481.00;;;3.58;72.11
20930;BME280;21895;47.072;15.132;2024-02-21T06:53:54;97479.00;;;3.67;71.54
20930;BME280;21895;47.072;15.132;2024-02-21T06:56:23;97478.00;;;3.69;72.17
20930;BME280;21895;47.072;15.132;2024-02-21T06:58:53;97470.00;;;3.56;72.59
20930;BME280;21895;47.072;15.132;2024-02-21T07:01:20;97476.00;;;3.62;72.46
20930;BME280;21895;47.072;15.132;2024-02-21T07:03:46;97476.00;;;3.63;72.64
20930;BME280;21895;47.072;15.132;2024-02-21T07:06:13;97472.00;;;3.54;73.02
20930;BME280;21895;47.072;15.132;2024-02-21T07:08:40;97481.00;;;3.55;72.90
20930;BME280;21895;47.072;15.132;2024-02-21T07:11:07;97482.00;;;3.51;72.51
20930;BME280;21895;47.072;15.132;2024-02-21T07:13:34;97473.00;;;3.60;72.26
20930;BME280;21895;47.072;15.132;2024-02-21T07:16:00;97481.00;;;3.84;71.53
20930;BME280;21895;47.072;15.132;2024-02-21T07:18:28;97489.00;;;3.84;71.92
20930;BME280;21895;47.072;15.132;2024-02-21T07:20:57;97485.00;;;4.03;71.67
20930;BME280;21895;47.072;15.132;2024-02-21T07:23:25;97480.00;;;4.15;71.15
20930;BME280;21895;47.072;15.132;2024-02-21T07:25:52;97472.00;;;4.31;70.70
20930;BME280;21895;47.072;15.132;2024-02-21T07:28:18;97477.00;;;4.55;69.74
20930;BME280;21895;47.072;15.132;2024-02-21T07:30:45;97469.00;;;4.80;68.53
20930;BME280;21895;47.072;15.132;2024-02-21T07:33:12;97481.00;;;4.86;68.63
20930;BME280;21895;47.072;15.132;2024-02-21T07:35:39;97484.00;;;4.90;68.81
20930;BME280;21895;47.072;15.132;2024-02-21T07:38:08;97470.00;;;4.89;68.22
20930;BME280;21895;47.072;15.132;2024-02-21T07:40:38;97474.00;;;5.06;67.83
20930;BME280;21895;47.072;15.132;2024-02-21T07:43:05;97469.00;;;5.14;68.67
20930;BME280;21895;47.072;15.132;2024-02-21T07:45:32;97471.00;;;5.09;69.11
20930;BME280;21895;47.072;15.132;2024-02-21T07:47:58;97470.00;;;5.13;68.61
20930;BME280;21895;47.072;15.132;2024-02-21T07:50:25;97470.00;;;5.31;67.98
20930;BME280;21895;47.072;15.132;2024-02-21T07:52:52;97466.00;;;5.57;68.14
20930;BME280;21895;47.072;15.132;2024-02-21T07:55:19;97465.00;;;5.69;67.47
20930;BME280;21895;47.072;15.132;2024-02-21T07:57:46;97468.00;;;5.82;67.67
20930;BME280;21895;47.072;15.132;2024-02-21T08:00:13;97457.00;;;6.11;67.28
20930;BME280;21895;47.072;15.132;2024-02-21T08:02:49;97456.00;;;6.23;65.64
20930;BME280;21895;47.072;15.132;2024-02-21T08:05:16;97452.00;;;6.39;64.51
20930;BME280;21895;47.072;15.132;2024-02-21T08:07:43;97448.00;;;6.39;63.76
20930;BME280;21895;47.072;15.132;2024-02-21T08:10:12;97451.00;;;6.31;63.74
20930;BME280;21895;47.072;15.132;2024-02-21T08:12:39;97452.00;;;6.32;63.69
20930;BME280;21895;47.072;15.132;2024-02-21T08:15:06;97444.00;;;6.39;63.64
20930;BME280;21895;47.072;15.132;2024-02-21T08:17:34;97445.00;;;6.49;62.10
20930;BME280;21895;47.072;15.132;2024-02-21T08:20:04;97441.00;;;6.73;62.03
20930;BME280;21895;47.072;15.132;2024-02-21T08:22:31;97436.00;;;7.26;60.33
20930;BME280;21895;47.072;15.132;2024-02-21T08:24:58;97437.00;;;7.66;59.96
20930;BME280;21895;47.072;15.132;2024-02-21T08:27:24;97430.00;;;7.71;59.41
20930;BME280;21895;47.072;15.132;2024-02-21T08:29:51;97429.00;;;7.71;58.91
20930;BME280;21895;47.072;15.132;2024-02-21T08:32:17;97426.00;;;7.69;58.66
20930;BME280;21895;47.072;15.132;2024-02-21T08:34:44;97414.00;;;7.90;57.20
20930;BME280;21895;47.072;15.132;2024-02-21T08:37:11;97413.00;;;8.02;57.08
20930;BME280;21895;47.072;15.132;2024-02-21T08:39:38;97420.00;;;8.15;58.16
20930;BME280;21895;47.072;15.132;2024-02-21T08:42:05;97414.00;;;8.36;55.80
20930;BME280;21895;47.072;15.132;2024-02-21T08:44:32;97419.00;;;8.52;55.74
20930;BME280;21895;47.072;15.132;2024-02-21T08:46:59;97415.00;;;8.69;55.57
20930;BME280;21895;47.072;15.132;2024-02-21T08:49:26;97415.00;;;9.11;54.77
20930;BME280;21895;47.072;15.132;2024-02-21T08:52:00;97404.00;;;9.36;54.40
20930;BME280;21895;47.072;15.132;2024-02-21T08:54:27;97408.00;;;9.58;53.34
20930;BME280;21895;47.072;15.132;2024-02-21T08:56:54;97405.00;;;9.49;53.11
20930;BME280;21895;47.072;15.132;2024-02-21T08:59:21;97414.00;;;9.63;54.05
20930;BME280;21895;47.072;15.132;2024-02-21T09:01:48;97403.00;;;9.78;52.61
20930;BME280;21895;47.072;15.132;2024-02-21T09:04:14;97406.00;;;9.83;52.38
20930;BME280;21895;47.072;15.132;2024-02-21T09:06:41;97400.00;;;9.76;52.27
20930;BME280;21895;47.072;15.132;2024-02-21T09:09:09;97395.00;;;9.60;53.48
20930;BME280;21895;47.072;15.132;2024-02-21T09:11:36;97391.00;;;10.00;52.84
20930;BME280;21895;47.072;15.132;2024-02-21T09:14:03;97386.00;;;10.16;51.86
20930;BME280;21895;47.072;15.132;2024-02-21T09:16:33;97388.00;;;10.10;50.88
20930;BME280;21895;47.072;15.132;2024-02-21T09:19:00;97382.00;;;10.15;51.15
20930;BME280;21895;47.072;15.132;2024-02-21T09:21:27;97383.00;;;10.35;50.94
20930;BME280;21895;47.072;15.132;2024-02-21T09:23:54;97380.00;;;10.60;50.22
20930;BME280;21895;47.072;15.132;2024-02-21T09:26:25;97376.00;;;10.93;47.88
20930;BME280;21895;47.072;15.132;2024-02-21T09:28:52;97379.00;;;11.33;46.09
20930;BME280;21895;47.072;15.132;2024-02-21T09:31:19;97369.00;;;11.58;45.96
20930;BME280;21895;47.072;15.132;2024-02-21T09:33:46;97372.00;;;11.61;46.33
20930;BME280;21895;47.072;15.132;2024-02-21T09:36:12;97375.00;;;11.50;48.66
20930;BME280;21895;47.072;15.132;2024-02-21T09:38:40;97369.00;;;11.43;48.56
20930;BME280;21895;47.072;15.132;2024-02-21T09:41:18;97366.00;;;11.20;48.03
20930;BME280;21895;47.072;15.132;2024-02-21T09:43:52;97365.00;;;11.41;47.40
20930;BME280;21895;47.072;15.132;2024-02-21T09:46:52;97365.00;;;11.61;47.28
20930;BME280;21895;47.072;15.132;2024-02-21T09:49:31;97352.00;;;11.79;42.38
20930;BME280;21895;47.072;15.132;2024-02-21T09:52:05;97354.00;;;12.15;41.55
20930;BME280;21895;47.072;15.132;2024-02-21T09:54:35;97355.00;;;12.21;41.26
20930;BME280;21895;47.072;15.132;2024-02-21T09:57:03;97339.00;;;12.46;39.59
20930;BME280;21895;47.072;15.132;2024-02-21T09:59:33;97339.00;;;12.78;39.81
20930;BME280;21895;47.072;15.132;2024-02-21T10:02:00;97328.00;;;13.03;38.34
20930;BME280;21895;47.072;15.132;2024-02-21T10:04:29;97334.00;;;12.92;39.00
20930;BME280;21895;47.072;15.132;2024-02-21T10:06:56;97325.00;;;12.76;38.01
20930;BME280;21895;47.072;15.132;2024-02-21T10:09:27;97325.00;;;12.86;37.62
20930;BME280;21895;47.072;15.132;2024-02-21T10:11:56;97323.00;;;12.72;36.73
20930;BME280;21895;47.072;15.132;2024-02-21T10:14:23;97316.00;;;12.49;37.22
20930;BME280;21895;47.072;15.132;2024-02-21T10:16:57;97317.00;;;12.36;37.64
20930;BME280;21895;47.072;15.132;2024-02-21T10:19:27;97318.00;;;12.45;36.79
20930;BME280;21895;47.072;15.132;2024-02-21T10:22:06;97307.00;;;12.31;37.76
20930;BME280;21895;47.072;15.132;2024-02-21T10:24:37;97309.00;;;12.52;37.36
20930;BME280;21895;47.072;15.132;2024-02-21T10:27:08;97303.00;;;12.51;36.71
20930;BME280;21895;47.072;15.132;2024-02-21T10:29:38;97304.00;;;12.66;36.81
20930;BME280;21895;47.072;15.132;2024-02-21T10:32:09;97291.00;;;12.78;36.79
20930;BME280;21895;47.072;15.132;2024-02-21T10:34:38;97284.00;;;13.02;36.28
20930;BME280;21895;47.072;15.132;2024-02-21T10:37:10;97283.00;;;13.27;35.46
20930;BME280;21895;47.072;15.132;2024-02-21T10:39:39;97289.00;;;13.32;35.20
20930;BME280;21895;47.072;15.132;2024-02-21T10:42:07;97275.00;;;13.52;35.58
20930;BME280;21895;47.072;15.132;2024-02-21T10:44:37;97268.00;;;13.49;36.37
20930;BME280;21895;47.072;15.132;2024-02-21T10:47:09;97271.00;;;13.74;34.09
20930;BME280;21895;47.072;15.132;2024-02-21T10:49:44;97267.00;;;13.85;35.64
20930;BME280;21895;47.072;15.132;2024-02-21T10:52:56;97256.00;;;13.85;36.19
20930;BME280;21895;47.072;15.132;2024-02-21T10:55:37;97261.00;;;13.92;35.15
20930;BME280;21895;47.072;15.132;2024-02-21T10:58:05;97253.00;;;13.98;33.98
20930;BME280;21895;47.072;15.132;2024-02-21T11:00:33;97251.00;;;13.89;33.25
20930;BME280;21895;47.072;15.132;2024-02-21T11:03:00;97244.00;;;13.98;33.62
20930;BME280;21895;47.072;15.132;2024-02-21T11:05:29;97231.00;;;14.19;32.94
20930;BME280;21895;47.072;15.132;2024-02-21T11:07:57;97232.00;;;14.22;33.48
20930;BME280;21895;47.072;15.132;2024-02-21T11:10:25;97228.00;;;14.62;32.95
20930;BME280;21895;47.072;15.132;2024-02-21T11:13:09;97226.00;;;14.92;32.01
20930;BME280;21895;47.072;15.132;2024-02-21T11:15:39;97218.00;;;15.04;31.91
20930;BME280;21895;47.072;15.132;2024-02-21T11:18:06;97213.00;;;15.22;32.58
20930;BME280;21895;47.072;15.132;2024-02-21T11:20:34;97212.00;;;15.46;32.29
20930;BME280;21895;47.072;15.132;2024-02-21T11:23:02;97197.00;;;15.38;30.92
20930;BME280;21895;47.072;15.132;2024-02-21T11:25:29;97190.00;;;15.15;31.42
20930;BME280;21895;47.072;15.132;2024-02-21T11:28:04;97181.00;;;15.16;30.81
20930;BME280;21895;47.072;15.132;2024-02-21T11:30:36;97173.00;;;15.00;31.18
20930;BME280;21895;47.072;15.132;2024-02-21T11:33:06;97176.00;;;14.65;31.73
20930;BME280;21895;47.072;15.132;2024-02-21T11:35:34;97171.00;;;14.68;31.58
20930;BME280;21895;47.072;15.132;2024-02-21T11:38:13;97163.00;;;14.63;31.62
20930;BME280;21895;47.072;15.132;2024-02-21T11:40:46;97166.00;;;14.57;32.83
20930;BME280;21895;47.072;15.132;2024-02-21T11:43:15;97155.00;;;15.00;32.01
20930;BME280;21895;47.072;15.132;2024-02-21T11:45:41;97147.00;;;15.17;30.81
20930;BME280;21895;47.072;15.132;2024-02-21T11:48:08;97143.00;;;14.98;30.59
20930;BME280;21895;47.072;15.132;2024-02-21T11:50:35;97141.00;;;14.93;31.00
20930;BME280;21895;47.072;15.132;2024-02-21T11:53:06;97142.00;;;14.86;30.54
20930;BME280;21895;47.072;15.132;2024-02-21T11:55:32;97141.00;;;15.13;31.44
20930;BME280;21895;47.072;15.132;2024-02-21T11:58:00;97133.00;;;15.30;30.44
20930;BME280;21895;47.072;15.132;2024-02-21T12:00:27;97133.00;;;15.00;30.38
20930;BME280;21895;47.072;15.132;2024-02-21T12:02:55;97136.00;;;14.97;31.67
20930;BME280;21895;47.072;15.132;2024-02-21T12:05:26;97141.00;;;14.36;31.78
20930;BME280;21895;47.072;15.132;2024-02-21T12:07:55;97136.00;;;14.20;31.74
20930;BME280;21895;47.072;15.132;2024-02-21T12:10:22;97131.00;;;13.96;32.71
20930;BME280;21895;47.072;15.132;2024-02-21T12:12:48;97127.00;;;14.27;31.56
20930;BME280;21895;47.072;15.132;2024-02-21T12:15:18;97125.00;;;14.43;31.57
20930;BME280;21895;47.072;15.132;2024-02-21T12:17:46;97121.00;;;14.12;31.78
20930;BME280;21895;47.072;15.132;2024-02-21T12:20:12;97113.00;;;13.95;32.35
20930;BME280;21895;47.072;15.132;2024-02-21T12:22:42;97114.00;;;13.82;32.65
20930;BME280;21895;47.072;15.132;2024-02-21T12:25:22;97102.00;;;14.05;32.19
20930;BME280;21895;47.072;15.132;2024-02-21T12:27:50;97091.00;;;14.08;32.59
20930;BME280;21895;47.072;15.132;2024-02-21T12:30:17;97091.00;;;14.28;33.18
20930;BME280;21895;47.072;15.132;2024-02-21T12:32:49;97092.00;;;14.27;32.91
20930;BME280;21895;47.072;15.132;2024-02-21T12:35:16;97093.00;;;14.12;33.19
20930;BME280;21895;47.072;15.132;2024-02-21T12:37:44;97086.00;;;14.22;33.60
20930;BME280;21895;47.072;15.132;2024-02-21T12:40:11;97093.00;;;14.06;33.98
20930;BME280;21895;47.072;15.132;2024-02-21T12:42:39;97082.00;;;14.04;35.11
20930;BME280;21895;47.072;15.132;2024-02-21T12:45:07;97076.00;;;14.29;34.15
20930;BME280;21895;47.072;15.132;2024-02-21T12:47:34;97086.00;;;14.20;35.80
20930;BME280;21895;47.072;15.132;2024-02-21T12:50:02;97072.00;;;14.47;35.35
20930;BME280;21895;47.072;15.132;2024-02-21T12:52:30;97073.00;;;14.61;34.81
20930;BME280;21895;47.072;15.132;2024-02-21T12:54:57;97066.00;;;14.56;34.75
20930;BME280;21895;47.072;15.132;2024-02-21T12:57:25;97066.00;;;14.54;35.43
20930;BME280;21895;47.072;15.132;2024-02-21T12:59:54;97058.00;;;14.63;35.31
20930;BME280;21895;47.072;15.132;2024-02-21T13:02:21;97062.00;;;14.50;35.32